Harare, Zimbabwe
Current Conditions -  °F | °C
As of 12:00 AM on Tuesday 27 Jan 2015 (Local Time) from FVHA Reporting Station
Scattered Clouds Scattered Clouds  
Wind Chill: 66°   Ceiling: Unl
Heat Index: 66°   Visibility: 6mi
Dew Point: 59°   Wind: 8mph
Humidity: 78%   Direction: 60°ENE
Pressure: 30.18"   Gusts: NA
Location:  17.82°S, 31.05°E
Report Text: FVHA 262200Z 06007KT 9999 FEW030CB SCT080 19/15 Q1022 NOSIG
Loading
Personal Weather Stations






























Interactive Weather Map New forecast layout! Learn more

10-Day Weather Forecast

Advertisements
Track Severe Weather on mobile